Time;durP1;ratioP1;P1;durP2;ratioP2;P2;SDS_P1;SDS_P2;PMS_P1;PMS_P2;Temp;Humidity;BMP_temperature;BMP_pressure;BME280_temperature;BME280_humidity;BME280_pressure;Samples;Min_cycle;Max_cycle;Signal;HPM_P1;HPM_P2
2022/08/11 00:01:13;;;;;;;8.30;2.08;;;;;;;17.15;100.00;102335.13;6247526;22;20039;-79
2022/08/11 00:03:57;;;;;;;7.68;2.13;;;;;;;17.24;100.00;102352.94;6247720;22;20145;-79
2022/08/11 00:06:30;;;;;;;7.07;2.15;;;;;;;17.24;100.00;102352.94;6247856;22;20011;-78
2022/08/11 00:08:57;;;;;;;6.03;1.85;;;;;;;17.17;100.00;102341.22;6272130;22;20011;-79
2022/08/11 00:11:36;;;;;;;9.20;2.25;;;;;;;17.21;100.00;102347.09;6248457;22;20425;-78
2022/08/11 00:14:04;;;;;;;7.50;2.10;;;;;;;17.17;100.00;102346.66;6247398;22;20011;-78
2022/08/11 00:16:31;;;;;;;7.32;1.92;;;;;;;17.19;100.00;102344.59;6246179;22;20004;-79
2022/08/11 00:18:59;;;;;;;8.30;1.92;;;;;;;17.25;100.00;102349.22;6246405;23;20086;-78
2022/08/11 00:21:26;;;;;;;9.00;1.98;;;;;;;17.26;100.00;102353.59;6271427;22;20012;-78
2022/08/11 00:23:54;;;;;;;9.25;2.20;;;;;;;17.29;100.00;102352.34;6246051;23;20008;-79
2022/08/11 00:26:21;;;;;;;8.85;1.90;;;;;;;17.28;100.00;102358.81;6247246;22;20311;-79
2022/08/11 00:28:46;;;;;;;8.52;2.20;;;;;;;17.31;100.00;102353.81;6248013;22;20000;-78
2022/08/11 00:31:23;;;;;;;11.65;2.30;;;;;;;17.32;100.00;102344.63;6252085;23;20016;-79
2022/08/11 00:33:51;;;;;;;6.90;2.00;;;;;;;17.27;100.00;102333.50;6246460;23;20073;-78
2022/08/11 00:36:18;;;;;;;8.35;1.88;;;;;;;17.36;100.00;102348.59;6247339;22;20083;-79
2022/08/11 00:38:48;;;;;;;5.50;1.73;;;;;;;17.35;100.00;102340.63;6245684;22;20357;-78
2022/08/11 00:41:27;;;;;;;7.65;2.15;;;;;;;17.40;100.00;102349.00;6244952;22;20004;-78
2022/08/11 00:44:01;;;;;;;6.32;1.98;;;;;;;17.43;100.00;102353.22;6244909;22;20004;-79
2022/08/11 00:47:01;;;;;;;8.00;2.35;;;;;;;17.43;100.00;102350.50;6242788;23;20003;-79
2022/08/11 00:49:41;;;;;;;8.02;2.00;;;;;;;17.46;100.00;102344.63;6238644;23;20678;-78
2022/08/11 00:52:44;;;;;;;7.18;2.35;;;;;;;17.42;100.00;102340.63;6244308;22;20020;-79
2022/08/11 00:55:19;;;;;;;8.15;2.40;;;;;;;17.41;100.00;102347.13;6244209;22;19996;-79
2022/08/11 00:58:38;;;;;;;7.32;1.83;;;;;;;17.37;100.00;102342.09;6242884;23;20473;-78
2022/08/11 01:01:15;;;;;;;8.05;2.10;;;;;;;17.36;100.00;102345.03;6243607;22;20095;-78
2022/08/11 01:04:19;;;;;;;10.68;2.10;;;;;;;17.36;100.00;102337.72;6255749;23;19992;-79
2022/08/11 01:07:12;;;;;;;8.95;2.00;;;;;;;17.34;100.00;102342.50;6273447;22;20012;-79
2022/08/11 01:10:15;;;;;;;9.95;2.03;;;;;;;17.34;100.00;102342.50;6242579;23;20386;-78
2022/08/11 01:12:43;;;;;;;7.22;2.13;;;;;;;17.34;100.00;102339.78;6244013;23;20103;-78
2022/08/11 01:15:39;;;;;;;10.27;1.98;;;;;;;17.38;100.00;102343.78;6243933;23;19996;-79
2022/08/11 01:18:38;;;;;;;5.88;1.80;;;;;;;17.37;100.00;102342.09;6243963;23;20011;-78
2022/08/11 01:21:48;;;;;;;8.90;2.30;;;;;;;17.37;100.00;102336.66;6243761;22;20035;-79
2022/08/11 01:24:38;;;;;;;10.20;1.95;;;;;;;17.38;100.00;102341.06;6243913;22;19997;-78
2022/08/11 01:27:43;;;;;;;10.93;2.58;;;;;;;17.30;100.00;102327.66;6244415;23;20014;-79
2022/08/11 01:30:52;;;;;;;10.73;2.47;;;;;;;17.38;100.00;102341.06;6243784;22;20442;-78
2022/08/11 01:33:42;;;;;;;8.90;2.63;;;;;;;17.39;100.00;102339.19;6243878;22;20011;-78
2022/08/11 01:36:44;;;;;;;6.65;2.20;;;;;;;17.36;100.00;102342.31;6242535;23;20007;-78
2022/08/11 01:39:31;;;;;;;8.90;2.05;;;;;;;17.40;100.00;102348.19;6244880;22;20010;-79
2022/08/11 01:45:02;;;;;;;11.17;2.60;;;;;;;17.41;100.00;102345.25;6247414;23;20106;-79
2022/08/11 01:47:52;;;;;;;5.00;2.00;;;;;;;17.25;100.00;102322.00;6246110;23;20531;-79
2022/08/11 01:50:36;;;;;;;9.68;2.35;;;;;;;17.36;100.00;102350.47;6244477;23;19996;-79
2022/08/11 01:53:34;;;;;;;10.73;2.83;;;;;;;17.35;100.00;102354.22;6246495;23;20347;-79
2022/08/11 01:56:35;;;;;;;8.73;2.35;;;;;;;17.25;100.00;102334.75;6244503;23;20004;-79
2022/08/11 01:59:23;;;;;;;8.90;2.75;;;;;;;16.80;100.00;102270.00;6245572;22;20039;-78
2022/08/11 02:02:11;;;;;;;12.98;2.30;;;;;;;17.29;100.00;102353.19;6246568;22;20000;-78
2022/08/11 02:04:48;;;;;;;8.20;2.20;;;;;;;17.28;100.00;102353.38;6245437;23;20307;-79
2022/08/11 02:07:37;;;;;;;9.10;2.30;;;;;;;17.16;100.00;102336.00;6244439;23;20016;-79
2022/08/11 02:13:14;;;;;;;10.68;2.70;;;;;;;17.12;100.00;102349.19;6245430;23;20070;-78
2022/08/11 02:15:55;;;;;;;13.23;3.20;;;;;;;17.10;100.00;102348.53;6245251;22;20034;-78
2022/08/11 02:23:38;;;;;;;11.75;2.65;;;;;;;17.14;100.00;102355.22;6258413;22;20011;-78
2022/08/11 02:24:22;;;;;;;7.95;2.58;;;;;;;17.02;100.00;102345.97;6245457;23;20322;-79
2022/08/11 02:26:56;;;;;;;11.60;2.78;;;;;;;17.03;100.00;102337.63;6244668;23;20422;-79
2022/08/11 02:29:31;;;;;;;9.05;2.40;;;;;;;17.07;100.00;102360.66;6246681;22;20386;-78
2022/08/11 02:35:26;;;;;;;12.70;2.40;;;;;;;16.56;100.00;102284.13;6245520;23;20015;-78
2022/08/11 02:38:06;;;;;;;10.50;2.92;;;;;;;17.00;100.00;102351.63;6269855;22;20000;-78
2022/08/11 02:41:00;;;;;;;8.48;2.50;;;;;;;16.86;100.00;102336.31;6245171;23;20018;-79
2022/08/11 02:43:49;;;;;;;11.27;2.67;;;;;;;16.91;100.00;102348.25;6245276;23;20000;-79
2022/08/11 02:46:30;;;;;;;9.20;2.78;;;;;;;16.90;100.00;102354.72;6246583;22;20467;-78
2022/08/11 02:52:22;;;;;;;14.20;3.03;;;;;;;16.83;100.00;102348.44;6241281;22;20337;-79
2022/08/11 02:55:16;;;;;;;8.57;2.78;;;;;;;16.78;100.00;102340.03;6245255;23;20012;-78
2022/08/11 02:58:04;;;;;;;12.95;3.25;;;;;;;16.74;100.00;102341.47;6228955;23;20020;-78
2022/08/11 03:00:45;;;;;;;8.27;2.88;;;;;;;16.68;100.00;102342.25;6245655;22;20011;-78
2022/08/11 03:03:28;;;;;;;10.48;3.00;;;;;;;16.47;100.00;102315.22;6245430;22;20004;-78
2022/08/11 03:06:18;;;;;;;12.85;2.67;;;;;;;16.29;100.00;102286.72;6244213;23;20399;-79
2022/08/11 03:09:19;;;;;;;10.23;2.85;;;;;;;16.59;100.00;102324.47;6245290;23;20306;-79
2022/08/11 03:18:17;;;;;;;12.35;3.40;;;;;;;16.59;100.00;102310.88;6244759;23;20019;-78
2022/08/11 03:20:50;;;;;;;8.63;3.00;;;;;;;16.73;100.00;102331.63;6245576;22;20008;-79
2022/08/11 03:23:40;;;;;;;13.57;3.30;;;;;;;16.73;100.00;102330.81;6244942;22;20015;-79
2022/08/11 03:26:21;;;;;;;9.27;3.08;;;;;;;16.73;100.00;102336.25;6244909;22;20004;-79
2022/08/11 03:29:30;;;;;;;11.00;3.47;;;;;;;16.74;100.00;102338.75;6243934;23;20043;-79
2022/08/11 03:32:08;;;;;;;10.50;2.90;;;;;;;16.74;100.00;102335.19;6242983;23;20012;-78
2022/08/11 03:34:38;;;;;;;8.15;3.00;;;;;;;16.70;100.00;102329.31;6269254;22;20008;-79
2022/08/11 03:37:49;;;;;;;8.77;3.05;;;;;;;16.34;100.00;102265.19;6245230;22;20007;-78
2022/08/11 03:41:41;;;;;;;8.30;2.90;;;;;;;16.82;100.00;102344.06;6243319;23;20087;-79
2022/08/11 03:43:43;;;;;;;5.57;2.60;;;;;;;16.87;100.00;102346.16;6245198;23;20050;-78
2022/08/11 03:46:22;;;;;;;11.05;2.65;;;;;;;16.93;100.00;102349.94;6223424;23;20148;-78
2022/08/11 03:49:26;;;;;;;10.82;3.10;;;;;;;16.88;100.00;102331.50;6244525;22;20012;-79
2022/08/11 03:52:10;;;;;;;11.13;2.90;;;;;;;16.96;100.00;102347.66;6243372;22;20046;-78
2022/08/11 03:55:03;;;;;;;9.75;2.80;;;;;;;17.10;100.00;102348.53;6247292;22;20016;-79
2022/08/11 03:57:51;;;;;;;10.52;3.00;;;;;;;17.11;100.00;102339.31;6271634;22;20476;-79
2022/08/11 04:01:04;;;;;;;8.95;2.55;;;;;;;17.25;100.00;102346.50;6247587;22;20430;-78
2022/08/11 04:04:13;;;;;;;8.45;2.80;;;;;;;18.10;100.00;102341.31;6247040;23;20054;-79
2022/08/11 04:06:50;;;;;;;10.85;2.83;;;;;;;18.81;100.00;102350.56;6243154;23;20469;-78
2022/08/11 04:09:34;;;;;;;11.90;2.83;;;;;;;19.33;100.00;102357.63;6269424;22;19985;-78
2022/08/11 04:12:30;;;;;;;10.97;2.30;;;;;;;19.69;100.00;102340.59;6243523;23;20159;-79
2022/08/11 04:18:54;;;;;;;6.95;2.05;;;;;;;20.65;100.00;102355.66;6244047;23;20018;-79
2022/08/11 04:21:35;;;;;;;9.15;2.33;;;;;;;21.04;100.00;102352.66;6244180;22;20015;-79
2022/08/11 04:24:35;;;;;;;7.20;2.15;;;;;;;21.45;100.00;102353.75;6268647;22;20010;-78
2022/08/11 04:27:16;;;;;;;7.93;2.05;;;;;;;21.91;99.89;102355.75;6244845;22;20008;-79
2022/08/11 04:30:22;;;;;;;7.28;2.05;;;;;;;22.34;97.54;102353.75;6243200;23;20042;-78
2022/08/11 04:33:33;;;;;;;7.00;2.00;;;;;;;22.26;96.95;102357.69;6182868;23;20016;-78
2022/08/11 04:37:31;;;;;;;8.00;2.20;;;;;;;22.35;95.66;102360.88;6157956;23;20404;-78
2022/08/11 04:39:21;;;;;;;10.02;2.10;;;;;;;22.52;94.19;102351.69;6180623;23;20450;-79
2022/08/11 04:45:02;;;;;;;4.35;1.60;;;;;;;22.66;91.83;102334.97;6181442;23;20395;-79
2022/08/11 05:02:40;;;;;;;4.72;1.60;;;;;;;23.94;83.68;102351.03;6182567;23;20011;-79
2022/08/11 05:05:52;;;;;;;7.68;1.80;;;;;;;24.37;81.61;102345.66;6244386;23;20067;-79
2022/08/11 05:08:40;;;;;;;4.47;1.73;;;;;;;24.99;78.56;102344.47;6244166;22;20000;-80
2022/08/11 05:11:31;;;;;;;5.38;1.65;;;;;;;24.92;77.82;102348.53;6245631;23;20008;-79
2022/08/11 05:36:46;;;;;;;4.82;1.60;;;;;;;22.26;95.59;102358.53;6248075;23;20023;-79
2022/08/11 05:58:41;;;;;;;3.63;1.55;;;;;;;22.05;96.28;102362.69;6246078;23;20018;-78
2022/08/11 06:01:08;;;;;;;2.85;1.23;;;;;;;21.94;95.84;102366.22;6246911;22;20079;-78
2022/08/11 06:06:23;;;;;;;3.88;1.40;;;;;;;21.93;97.01;102374.72;6251403;23;20070;-79
2022/08/11 06:08:53;;;;;;;4.85;1.50;;;;;;;21.97;96.14;102359.44;6245748;22;20000;-79
2022/08/11 06:11:18;;;;;;;3.22;1.30;;;;;;;21.94;95.91;102348.97;6244396;23;20406;-79
2022/08/11 06:13:45;;;;;;;5.30;1.40;;;;;;;22.30;95.63;102369.00;6245714;23;20012;-78
2022/08/11 06:16:14;;;;;;;6.03;1.50;;;;;;;22.25;94.76;102348.63;6245630;22;20012;-78
2022/08/11 06:18:46;;;;;;;4.53;1.40;;;;;;;22.44;93.58;102371.25;6247966;22;20018;-78
2022/08/11 06:21:12;;;;;;;5.45;1.65;;;;;;;22.41;93.72;102376.38;6247965;22;20008;-78
2022/08/11 06:23:41;;;;;;;4.13;1.38;;;;;;;22.25;93.17;102370.56;6221491;23;20082;-78
2022/08/11 06:26:11;;;;;;;3.78;1.63;;;;;;;22.24;93.15;102360.66;6245812;22;20010;-78
2022/08/11 06:28:39;;;;;;;3.58;1.38;;;;;;;22.34;92.29;102365.53;6246554;23;19996;-78
2022/08/11 06:31:24;;;;;;;4.10;1.42;;;;;;;22.36;92.18;102379.84;6247212;22;20159;-78
2022/08/11 06:34:09;;;;;;;4.63;1.40;;;;;;;22.47;92.17;102375.44;6246702;22;20406;-78
2022/08/11 06:36:58;;;;;;;5.13;1.48;;;;;;;22.66;91.37;102379.69;6245696;23;20325;-78
2022/08/11 06:39:46;;;;;;;3.97;1.10;;;;;;;22.64;90.21;102378.25;6246126;23;20011;-80
2022/08/11 06:42:38;;;;;;;4.10;1.33;;;;;;;22.68;89.76;102377.56;6265404;23;20062;-82
2022/08/11 06:45:07;;;;;;;3.10;1.30;;;;;;;22.72;88.95;102377.91;6267177;22;20014;-82
2022/08/11 06:47:44;;;;;;;4.40;1.30;;;;;;;22.84;88.62;102370.44;6266285;22;20063;-81
2022/08/11 06:52:52;;;;;;;3.42;1.50;;;;;;;22.88;87.03;102366.16;6304232;22;20007;-81
2022/08/11 07:00:55;;;;;;;2.90;1.30;;;;;;;21.93;85.75;102243.16;6325341;22;20025;-79
2022/08/11 07:03:22;;;;;;;2.60;1.15;;;;;;;22.81;86.04;102339.91;6301478;22;20011;-81
2022/08/11 07:05:52;;;;;;;4.97;1.50;;;;;;;23.11;85.64;102376.25;6294992;22;20041;-81
2022/08/11 07:17:33;;;;;;;3.22;1.40;;;;;;;23.16;83.41;102389.25;6317912;22;20038;-81
2022/08/11 07:31:25;;;;;;;2.72;1.15;;;;;;;22.93;81.32;102385.50;6324065;22;20059;-82
2022/08/11 07:34:08;;;;;;;3.15;1.10;;;;;;;23.10;81.68;102392.97;6323735;22;20077;-81
2022/08/11 07:36:41;;;;;;;3.25;1.20;;;;;;;23.19;81.79;102386.00;6297087;22;20013;-81
2022/08/11 07:39:11;;;;;;;5.32;1.23;;;;;;;23.27;81.92;102384.78;6321646;22;20063;-81
2022/08/11 07:41:37;;;;;;;3.30;1.38;;;;;;;23.44;82.20;102386.50;6324020;22;19999;-81
2022/08/11 07:44:10;;;;;;;2.30;1.10;;;;;;;23.51;81.33;102377.22;6268580;22;20021;-81
2022/08/11 07:54:57;;;;;;;2.60;1.00;;;;;;;23.36;80.85;102383.28;6316408;22;20423;-81
2022/08/11 08:19:23;;;;;;;3.65;1.02;;;;;;;23.67;75.99;102384.66;6323448;22;20022;-82
2022/08/11 08:21:49;;;;;;;2.72;1.20;;;;;;;23.73;78.31;102394.69;6295523;22;20130;-81
2022/08/11 08:24:18;;;;;;;2.17;0.93;;;;;;;23.67;76.37;102402.00;6305778;22;20014;-81
2022/08/11 08:26:59;;;;;;;3.60;1.10;;;;;;;23.56;76.00;102402.91;6266029;22;20070;-81
2022/08/11 08:32:12;;;;;;;5.03;1.08;;;;;;;23.53;75.31;102406.13;6321050;22;20014;-81
2022/08/11 08:34:39;;;;;;;2.53;1.00;;;;;;;23.45;75.29;102406.56;6291513;22;20010;-82
2022/08/11 08:37:05;;;;;;;2.22;0.95;;;;;;;23.48;74.99;102407.94;6267483;22;20022;-82
2022/08/11 08:39:33;;;;;;;2.85;0.90;;;;;;;23.51;74.73;102401.97;6292458;22;20003;-82
2022/08/11 08:42:02;;;;;;;3.55;1.00;;;;;;;23.45;74.28;102404.63;6271040;22;20022;-81
2022/08/11 08:44:33;;;;;;;1.55;0.80;;;;;;;23.32;73.17;102401.34;6323475;22;20003;-81
2022/08/11 08:46:59;;;;;;;2.15;0.90;;;;;;;23.25;74.36;102409.75;6321593;22;20007;-82
2022/08/11 08:49:35;;;;;;;2.30;0.88;;;;;;;23.28;72.99;102400.16;6296101;22;19999;-81
2022/08/11 08:52:07;;;;;;;2.88;1.15;;;;;;;23.41;73.10;102402.59;6297713;22;19999;-83
2022/08/11 08:54:36;;;;;;;3.63;1.00;;;;;;;23.02;73.09;102349.44;6302384;22;20002;-81
2022/08/11 08:57:04;;;;;;;2.67;0.95;;;;;;;23.27;70.96;102391.09;6330810;22;20019;-82
2022/08/11 08:59:32;;;;;;;2.65;0.90;;;;;;;23.20;71.32;102393.97;6297301;22;20379;-80
2022/08/11 09:02:03;;;;;;;3.33;0.73;;;;;;;23.09;71.12;102394.06;6317346;22;20063;-81
2022/08/11 10:04:02;;;;;;;3.40;0.80;;;;;;;22.29;68.26;102187.19;6301352;22;20024;-81
2022/08/11 10:09:19;;;;;;;1.63;0.80;;;;;;;22.81;69.19;102255.66;6301608;22;20428;-82
2022/08/11 10:11:47;;;;;;;2.67;0.88;;;;;;;22.70;68.28;102231.88;6301295;22;20091;-82
2022/08/11 11:26:41;;;;;;;1.83;0.43;;;;;;;24.22;59.88;102375.69;6292294;22;20134;31
2022/08/11 11:29:38;;;;;;;2.17;0.73;;;;;;;22.85;61.19;102191.00;6299968;22;20023;-81
2022/08/11 11:45:01;;;;;;;2.10;0.80;;;;;;;23.25;64.81;102195.53;6307024;22;20015;-82
2022/08/11 11:47:29;;;;;;;1.23;0.65;;;;;;;23.64;63.90;102236.75;6292842;22;20019;-82
2022/08/11 12:28:51;;;;;;;1.05;0.60;;;;;;;23.54;60.36;102199.00;6259774;22;20029;-80
2022/08/11 12:37:23;;;;;;;1.33;0.60;;;;;;;24.95;60.90;102350.78;6308780;22;20083;31
2022/08/11 12:45:27;;;;;;;0.75;0.60;;;;;;;24.46;58.61;102257.16;6335633;22;20033;-82
2022/08/11 12:53:58;;;;;;;1.50;0.80;;;;;;;25.21;59.39;102352.75;6343347;22;20017;-81
2022/08/11 13:04:58;;;;;;;3.05;0.93;;;;;;;25.30;61.56;102334.66;6362574;22;19922;-80
2022/08/11 13:07:28;;;;;;;2.95;1.10;;;;;;;25.37;62.70;102336.38;6351654;22;20006;-79
2022/08/11 13:09:55;;;;;;;1.98;0.90;;;;;;;25.48;62.86;102338.13;6353835;22;20002;-79
2022/08/11 13:15:14;;;;;;;1.30;1.00;;;;;;;25.44;59.90;102317.69;6356235;22;20032;-81
2022/08/11 13:17:41;;;;;;;1.75;1.00;;;;;;;25.39;57.89;102323.97;6352134;22;20041;-79
2022/08/11 13:20:12;;;;;;;5.35;1.10;;;;;;;25.27;56.93;102326.91;6355667;22;20014;-80
2022/08/11 13:22:39;;;;;;;2.15;0.90;;;;;;;25.23;57.66;102312.00;6327277;22;20006;-81
2022/08/11 13:25:06;;;;;;;2.00;1.00;;;;;;;24.81;57.17;102235.53;6324267;22;20022;-78
2022/08/11 13:53:26;;;;;;;1.52;0.80;;;;;;;24.74;56.04;102162.53;6324410;22;20003;-82
2022/08/11 14:08:52;;;;;;;1.45;0.80;;;;;;;25.10;56.85;102207.72;6321156;22;20050;-82
2022/08/11 14:16:36;;;;;;;3.92;0.90;;;;;;;24.89;56.89;102167.31;6327988;22;20015;-82
2022/08/11 15:03:11;;;;;;;1.20;1.00;;;;;;;24.76;55.45;102072.25;6296572;22;20015;-81
2022/08/11 15:52:15;;;;;;;1.15;1.00;;;;;;;25.41;54.18;102078.47;6316196;22;20011;-81
2022/08/11 15:54:45;;;;;;;4.10;1.38;;;;;;;25.94;53.92;102137.19;6367729;22;20017;-81
2022/08/11 16:05:00;;;;;;;3.63;1.00;;;;;;;25.58;53.38;102026.72;6287005;22;20011;-81
2022/08/11 16:10:10;;;;;;;3.45;1.17;;;;;;;26.56;53.25;102205.28;6292173;22;20634;-81
2022/08/11 16:17:59;;;;;;;3.90;0.90;;;;;;;26.77;53.28;102202.53;6302301;22;20217;-81
2022/08/11 16:20:29;;;;;;;4.18;1.00;;;;;;;26.28;53.10;102114.63;6329711;22;20007;-81
2022/08/11 16:22:59;;;;;;;2.58;1.23;;;;;;;26.77;53.48;102205.28;6318554;22;20002;-81
2022/08/11 16:25:26;;;;;;;2.00;1.13;;;;;;;26.88;53.81;102212.47;6340239;22;20040;-81
2022/08/11 16:27:58;;;;;;;4.35;1.27;;;;;;;26.75;52.91;102202.78;6317328;22;20401;-81
2022/08/11 16:30:26;;;;;;;1.98;1.00;;;;;;;26.66;53.66;102198.94;6346339;22;20010;-81
2022/08/11 16:32:53;;;;;;;2.80;1.30;;;;;;;26.64;54.52;102185.38;6347043;22;20063;-81
2022/08/11 16:40:56;;;;;;;3.95;1.20;;;;;;;26.57;55.29;102162.75;6348829;22;20432;-80
2022/08/11 16:48:59;;;;;;;2.20;1.20;;;;;;;26.56;55.06;102190.63;6356253;22;20029;-80
2022/08/11 16:51:24;;;;;;;2.80;1.45;;;;;;;26.51;55.12;102185.09;6352536;22;20002;-81
2022/08/11 16:53:50;;;;;;;1.92;1.20;;;;;;;26.42;55.91;102187.50;6351097;22;20436;-81
2022/08/11 16:56:23;;;;;;;1.98;1.15;;;;;;;26.44;56.07;102180.63;6319342;22;20079;-77
2022/08/11 17:01:37;;;;;;;2.63;1.30;;;;;;;26.38;55.79;102176.19;6337491;22;20063;-80
2022/08/11 17:18:41;;;;;;;1.30;1.00;;;;;;;25.94;59.19;102186.81;6349419;22;20037;-78
2022/08/11 17:21:14;;;;;;;1.75;0.90;;;;;;;25.76;59.54;102186.16;6316352;22;20011;-79
2022/08/11 17:23:51;;;;;;;1.70;1.10;;;;;;;25.44;59.35;102168.88;6315981;22;20055;-79
2022/08/11 17:26:19;;;;;;;2.42;1.00;;;;;;;25.28;60.98;102178.97;6315395;22;20003;-78
2022/08/11 17:28:50;;;;;;;2.47;1.58;;;;;;;25.22;60.71;102189.09;6346382;22;20391;-80
2022/08/11 17:36:53;;;;;;;2.67;0.93;;;;;;;25.01;61.08;102187.25;6347586;22;20018;-82
2022/08/11 17:39:20;;;;;;;2.90;0.82;;;;;;;24.93;61.17;102179.47;6321031;22;20007;-80
2022/08/11 17:50:02;;;;;;;1.92;0.80;;;;;;;24.45;62.94;102184.81;6346834;22;20028;-81
2022/08/11 18:00:43;;;;;;;3.97;0.93;;;;;;;24.27;64.28;102169.47;6344901;22;20473;-79
2022/08/11 18:03:31;;;;;;;3.63;0.90;;;;;;;24.43;64.67;102183.41;6327515;22;20070;-77
2022/08/11 18:05:59;;;;;;;3.65;0.88;;;;;;;24.45;64.82;102182.06;6328708;22;20018;-78
